createdAt,value
2022-09-24T00:00:17.427Z,7.47
2022-09-24T00:02:47.558Z,7.15
2022-09-24T00:05:16.758Z,6.88
2022-09-24T00:07:46.057Z,7.68
2022-09-24T00:10:14.962Z,8.30
2022-09-24T00:12:43.489Z,7.70
2022-09-24T00:15:13.664Z,7.95
2022-09-24T00:17:42.221Z,7.93
2022-09-24T00:20:13.034Z,7.85
2022-09-24T00:22:41.563Z,8.18
2022-09-24T00:25:28.020Z,7.15
2022-09-24T00:27:57.222Z,7.07
2022-09-24T00:30:28.972Z,6.75
2022-09-24T00:32:57.734Z,6.28
2022-09-24T00:35:32.428Z,6.93
2022-09-24T00:38:01.057Z,6.40
2022-09-24T00:40:30.855Z,6.53
2022-09-24T00:42:59.458Z,6.10
2022-09-24T00:45:29.780Z,5.85
2022-09-24T00:47:58.905Z,6.80
2022-09-24T00:50:34.050Z,5.97
2022-09-24T00:53:05.138Z,6.45
2022-09-24T00:55:35.691Z,6.93
2022-09-24T00:58:06.149Z,7.00
2022-09-24T01:00:39.445Z,6.43
2022-09-24T01:03:09.549Z,7.38
2022-09-24T01:05:40.744Z,8.02
2022-09-24T01:08:10.344Z,7.47
2022-09-24T01:10:52.489Z,6.95
2022-09-24T01:13:31.549Z,7.78
2022-09-24T01:16:05.737Z,6.82
2022-09-24T01:18:38.452Z,6.80
2022-09-24T01:21:22.717Z,6.18
2022-09-24T01:24:10.945Z,6.50
2022-09-24T01:26:48.054Z,6.68
2022-09-24T01:29:32.249Z,7.75
2022-09-24T01:34:38.774Z,6.25
2022-09-24T01:37:07.384Z,6.65
2022-09-24T01:39:38.505Z,6.95
2022-09-24T01:42:08.107Z,8.02
2022-09-24T01:44:39.157Z,8.35
2022-09-24T01:47:08.915Z,7.85
2022-09-24T01:49:37.954Z,7.32
2022-09-24T01:52:11.790Z,6.30
2022-09-24T01:57:12.238Z,6.78
2022-09-24T01:59:44.588Z,5.88
2022-09-24T02:02:14.762Z,6.30
2022-09-24T02:04:45.610Z,6.63
2022-09-24T02:07:16.587Z,7.25
2022-09-24T02:09:46.001Z,6.57
2022-09-24T02:12:18.509Z,6.30
2022-09-24T02:14:51.065Z,7.28
2022-09-24T02:17:19.952Z,6.00
2022-09-24T02:19:52.215Z,6.57
2022-09-24T02:22:21.892Z,6.68
2022-09-24T02:24:52.169Z,6.88
2022-09-24T02:27:22.080Z,6.57
2022-09-24T02:29:52.943Z,6.15
2022-09-24T02:32:22.170Z,6.28
2022-09-24T02:34:53.250Z,5.95
2022-09-24T02:37:25.155Z,6.28
2022-09-24T02:39:53.975Z,6.68
2022-09-24T02:42:24.634Z,6.13
2022-09-24T02:44:57.629Z,6.53
2022-09-24T02:47:29.526Z,6.80
2022-09-24T02:49:58.575Z,6.07
2022-09-24T02:52:27.604Z,6.65
2022-09-24T02:54:56.776Z,6.38
2022-09-24T02:57:25.706Z,6.85
2022-09-24T02:59:55.899Z,6.63
2022-09-24T03:02:25.686Z,6.53
2022-09-24T03:05:02.825Z,6.78
2022-09-24T03:07:32.445Z,6.75
2022-09-24T03:10:01.615Z,7.18
2022-09-24T03:12:33.475Z,6.72
2022-09-24T03:15:03.774Z,5.88
2022-09-24T03:17:32.509Z,6.50
2022-09-24T03:20:01.230Z,6.45
2022-09-24T03:22:31.911Z,6.47
2022-09-24T03:25:00.889Z,6.72
2022-09-24T03:27:29.802Z,7.53
2022-09-24T03:30:16.293Z,7.20
2022-09-24T03:32:46.383Z,7.25
2022-09-24T03:35:15.952Z,7.32
2022-09-24T03:37:49.086Z,6.88
2022-09-24T03:40:20.228Z,6.80
2022-09-24T03:42:49.079Z,6.03
2022-09-24T03:45:18.900Z,7.03
2022-09-24T03:47:49.257Z,6.25
2022-09-24T03:50:19.275Z,7.35
2022-09-24T03:52:47.770Z,7.63
2022-09-24T03:55:16.363Z,7.05
2022-09-24T03:57:45.156Z,7.88
2022-09-24T04:00:13.902Z,7.53
2022-09-24T04:02:43.110Z,7.15
2022-09-24T04:05:13.431Z,7.22
2022-09-24T04:07:42.768Z,7.07
2022-09-24T04:10:11.745Z,6.95
2022-09-24T04:12:40.694Z,6.90
2022-09-24T04:15:10.011Z,6.78
2022-09-24T04:17:38.813Z,6.30
2022-09-24T04:20:08.230Z,7.07
2022-09-24T04:22:39.366Z,6.85
2022-09-24T04:25:14.034Z,6.60
2022-09-24T04:27:43.581Z,6.47
2022-09-24T04:30:13.640Z,6.90
2022-09-24T04:32:42.595Z,8.57
2022-09-24T04:35:11.727Z,9.77
2022-09-24T04:37:42.909Z,8.40
2022-09-24T04:40:12.952Z,8.10
2022-09-24T04:42:42.081Z,7.38
2022-09-24T04:45:11.952Z,6.90
2022-09-24T04:47:43.656Z,7.00
2022-09-24T04:50:13.512Z,6.70
2022-09-24T04:52:47.511Z,6.78
2022-09-24T04:57:46.299Z,6.43
2022-09-24T05:00:17.616Z,7.10
2022-09-24T05:02:49.869Z,6.70
2022-09-24T05:05:18.670Z,6.35
2022-09-24T05:07:49.651Z,6.93
2022-09-24T05:10:18.444Z,6.70
2022-09-24T05:12:47.005Z,6.38
2022-09-24T05:15:15.854Z,6.65
2022-09-24T05:17:49.715Z,6.43
2022-09-24T05:22:49.652Z,6.53
2022-09-24T05:25:19.139Z,7.30
2022-09-24T05:27:46.901Z,7.60
2022-09-24T05:30:19.243Z,8.15
2022-09-24T05:32:49.692Z,7.57
2022-09-24T05:35:18.957Z,7.78
2022-09-24T05:37:50.236Z,9.35
2022-09-24T05:40:36.557Z,16.00
2022-09-24T05:43:05.922Z,14.50
2022-09-24T05:45:34.899Z,14.10
2022-09-24T05:48:04.042Z,12.10
2022-09-24T05:50:35.295Z,11.00
2022-09-24T05:53:06.033Z,9.60
2022-09-24T05:55:35.789Z,15.38
2022-09-24T05:58:05.150Z,12.15
2022-09-24T06:00:36.887Z,10.38
2022-09-24T06:03:07.960Z,10.38
2022-09-24T06:05:36.942Z,14.93
2022-09-24T06:08:08.220Z,12.02
2022-09-24T06:10:37.782Z,13.50
2022-09-24T06:13:12.352Z,12.35
2022-09-24T06:15:42.842Z,22.65
2022-09-24T06:18:14.764Z,15.80
2022-09-24T06:20:50.838Z,15.27
2022-09-24T06:23:21.620Z,13.35
2022-09-24T06:25:53.724Z,11.30
2022-09-24T06:28:22.630Z,14.93
2022-09-24T06:30:51.231Z,12.20
2022-09-24T06:33:20.455Z,9.32
2022-09-24T06:35:58.269Z,26.65
2022-09-24T06:38:28.755Z,17.27
2022-09-24T06:41:03.849Z,10.82
2022-09-24T06:43:35.415Z,10.18
2022-09-24T06:46:05.129Z,21.58
2022-09-24T06:48:34.426Z,11.57
2022-09-24T06:51:03.508Z,10.45
2022-09-24T06:53:33.519Z,9.80
2022-09-24T06:56:03.652Z,12.52
2022-09-24T06:58:32.318Z,10.13
2022-09-24T07:01:02.598Z,9.98
2022-09-24T07:03:32.648Z,10.10
2022-09-24T07:06:02.550Z,9.57
2022-09-24T07:08:31.531Z,9.95
2022-09-24T07:11:01.732Z,10.00
2022-09-24T07:13:30.500Z,10.00
2022-09-24T07:16:02.621Z,9.85
2022-09-24T07:18:31.692Z,9.77
2022-09-24T07:21:00.687Z,9.65
2022-09-24T07:23:29.526Z,8.20
2022-09-24T07:25:59.281Z,8.57
2022-09-24T07:28:29.348Z,8.95
2022-09-24T07:30:58.834Z,8.43
2022-09-24T07:33:27.454Z,8.45
2022-09-24T07:35:57.844Z,8.18
2022-09-24T07:38:27.579Z,8.20
2022-09-24T07:40:59.654Z,8.77
2022-09-24T07:43:33.676Z,8.63
2022-09-24T07:46:04.688Z,8.40
2022-09-24T07:48:35.781Z,9.13
2022-09-24T07:51:06.211Z,8.45
2022-09-24T07:53:35.153Z,9.48
2022-09-24T07:56:04.360Z,9.77
2022-09-24T07:58:35.937Z,10.75
2022-09-24T08:01:07.636Z,10.27
2022-09-24T08:03:37.924Z,9.70
2022-09-24T08:06:07.294Z,10.55
2022-09-24T08:08:39.155Z,10.50
2022-09-24T08:11:12.252Z,10.10
2022-09-24T08:13:42.506Z,10.18
2022-09-24T08:16:14.495Z,10.63
2022-09-24T08:18:59.720Z,11.07
2022-09-24T08:21:29.229Z,11.57
2022-09-24T08:24:07.657Z,11.77
2022-09-24T08:26:38.378Z,12.00
2022-09-24T08:29:09.853Z,12.93
2022-09-24T08:31:42.208Z,12.90
2022-09-24T08:34:24.731Z,12.10
2022-09-24T08:37:03.789Z,11.30
2022-09-24T08:39:34.198Z,11.95
2022-09-24T08:42:17.785Z,11.95
2022-09-24T08:45:16.878Z,10.90
2022-09-24T08:48:01.354Z,11.07
2022-09-24T08:50:48.315Z,12.00
2022-09-24T08:53:19.280Z,10.68
2022-09-24T08:56:13.166Z,11.73
2022-09-24T08:59:08.862Z,12.23
2022-09-24T09:02:07.584Z,10.85
2022-09-24T09:05:19.554Z,11.05
2022-09-24T09:08:27.298Z,10.32
2022-09-24T09:11:20.889Z,9.77
2022-09-24T09:14:35.897Z,9.77
2022-09-24T09:18:00.974Z,10.38
2022-09-24T09:20:58.172Z,9.13
2022-09-24T09:24:02.439Z,10.48
2022-09-24T09:30:35.968Z,10.02
2022-09-24T09:33:50.971Z,9.27
2022-09-24T09:39:27.627Z,10.10
2022-09-24T09:45:21.977Z,9.98
2022-09-24T09:51:04.231Z,10.07
2022-09-24T09:53:36.544Z,9.02
2022-09-24T09:56:26.632Z,9.07
2022-09-24T09:59:15.182Z,8.60
2022-09-24T10:02:04.463Z,8.98
2022-09-24T10:04:52.239Z,8.82
2022-09-24T10:10:58.181Z,8.65
2022-09-24T10:13:29.271Z,8.68
2022-09-24T10:16:01.723Z,8.63
2022-09-24T10:18:32.927Z,8.15
2022-09-24T10:21:06.827Z,8.43
2022-09-24T10:23:41.392Z,7.53
2022-09-24T10:26:17.129Z,8.55
2022-09-24T10:29:08.629Z,8.13
2022-09-24T10:31:54.506Z,7.72
2022-09-24T10:34:32.238Z,7.68
2022-09-24T10:37:02.039Z,8.18
2022-09-24T10:39:30.958Z,8.68
2022-09-24T10:42:00.721Z,7.32
2022-09-24T10:44:52.586Z,8.13
2022-09-24T10:47:42.670Z,7.70
2022-09-24T10:50:28.436Z,7.90
2022-09-24T10:56:10.846Z,8.60
2022-09-24T10:59:07.959Z,7.90
2022-09-24T11:01:50.789Z,8.20
2022-09-24T11:08:55.571Z,7.10
2022-09-24T11:13:01.978Z,7.78
2022-09-24T11:15:22.274Z,7.78
2022-09-24T11:22:04.950Z,7.55
2022-09-24T11:38:50.392Z,7.93
2022-09-24T11:41:46.284Z,7.72
2022-09-24T11:44:22.568Z,7.57
2022-09-24T11:51:00.182Z,7.10
2022-09-24T11:54:02.610Z,6.47
2022-09-24T11:59:54.101Z,6.60
2022-09-24T12:02:37.493Z,5.80
2022-09-24T12:05:16.047Z,5.90
2022-09-24T12:08:13.804Z,5.85
2022-09-24T12:11:15.994Z,5.72
2022-09-24T12:14:21.832Z,5.85
2022-09-24T12:17:16.177Z,5.45
2022-09-24T12:19:54.481Z,7.15
2022-09-24T12:22:46.691Z,5.88
2022-09-24T12:25:33.187Z,5.72
2022-09-24T12:28:44.431Z,5.53
2022-09-24T12:31:42.227Z,5.75
2022-09-24T12:41:51.549Z,5.00
2022-09-24T12:44:54.087Z,4.10
2022-09-24T12:48:12.943Z,3.58
2022-09-24T12:50:49.716Z,4.32
2022-09-24T12:57:26.804Z,4.15
2022-09-24T13:04:07.920Z,4.18
2022-09-24T13:10:15.782Z,5.35
2022-09-24T13:12:56.012Z,4.82
2022-09-24T13:16:00.371Z,4.05
2022-09-24T13:25:40.044Z,5.07
2022-09-24T13:32:54.953Z,4.15
2022-09-24T13:35:51.894Z,4.28
2022-09-24T13:38:43.099Z,4.72
2022-09-24T13:42:09.112Z,4.60
2022-09-24T13:49:31.259Z,4.65
2022-09-24T13:52:23.872Z,4.13
2022-09-24T14:04:29.506Z,4.75
2022-09-24T14:13:29.679Z,4.60
2022-09-24T14:16:02.927Z,5.00
2022-09-24T14:21:13.432Z,4.95
2022-09-24T14:23:45.059Z,6.07
2022-09-24T14:26:22.691Z,4.93
2022-09-24T14:28:53.486Z,4.95
2022-09-24T14:31:27.805Z,5.00
2022-09-24T14:34:04.764Z,5.53
2022-09-24T14:36:43.338Z,5.28
2022-09-24T14:39:18.072Z,4.70
2022-09-24T14:41:50.053Z,4.10
2022-09-24T14:44:34.733Z,4.68
2022-09-24T14:47:07.418Z,4.53
2022-09-24T14:49:45.643Z,4.50
2022-09-24T14:52:32.906Z,4.70
2022-09-24T14:55:23.502Z,5.00
2022-09-24T14:57:57.763Z,4.60
2022-09-24T15:00:44.301Z,5.32
2022-09-24T15:03:21.069Z,4.78
2022-09-24T15:05:54.057Z,5.70
2022-09-24T15:08:29.005Z,6.15
2022-09-24T15:11:09.712Z,5.47
2022-09-24T15:13:45.755Z,5.35
2022-09-24T15:16:24.738Z,5.22
2022-09-24T15:19:21.651Z,5.22
2022-09-24T15:21:58.546Z,5.03
2022-09-24T15:24:41.999Z,5.20
2022-09-24T15:27:36.161Z,4.70
2022-09-24T15:32:47.710Z,4.35
2022-09-24T15:35:20.191Z,4.50
2022-09-24T15:37:56.338Z,4.57
2022-09-24T15:40:33.554Z,4.97
2022-09-24T15:43:05.390Z,5.53
2022-09-24T15:45:43.207Z,5.35
2022-09-24T15:48:19.367Z,4.53
2022-09-24T15:51:05.853Z,4.30
2022-09-24T15:53:41.853Z,4.32
2022-09-24T15:56:13.852Z,4.53
2022-09-24T16:01:37.720Z,4.75
2022-09-24T16:04:06.322Z,4.50
2022-09-24T16:06:35.166Z,4.90
2022-09-24T16:09:11.813Z,4.70
2022-09-24T16:11:44.829Z,4.53
2022-09-24T16:14:17.540Z,5.47
2022-09-24T16:16:57.595Z,5.17
2022-09-24T16:19:33.250Z,4.82
2022-09-24T16:22:04.205Z,5.32
2022-09-24T16:24:38.559Z,7.07
2022-09-24T16:27:19.869Z,6.68
2022-09-24T16:29:52.521Z,5.65
2022-09-24T16:32:26.966Z,5.38
2022-09-24T16:34:58.160Z,5.30
2022-09-24T16:37:29.843Z,6.40
2022-09-24T16:39:59.966Z,5.90
2022-09-24T16:42:47.716Z,6.70
2022-09-24T16:45:25.601Z,6.60
2022-09-24T16:48:00.323Z,5.50
2022-09-24T16:50:37.506Z,5.45
2022-09-24T16:53:09.417Z,4.82
2022-09-24T16:55:54.703Z,4.60
2022-09-24T16:58:44.731Z,4.35
2022-09-24T17:01:20.985Z,4.47
2022-09-24T17:04:06.731Z,4.55
2022-09-24T17:06:39.707Z,4.00
2022-09-24T17:09:25.714Z,4.47
2022-09-24T17:12:02.841Z,4.28
2022-09-24T17:14:39.863Z,4.15
2022-09-24T17:17:15.562Z,3.90
2022-09-24T17:19:44.544Z,3.40
2022-09-24T17:22:15.730Z,3.83
2022-09-24T17:24:53.311Z,3.75
2022-09-24T17:27:27.544Z,3.50
2022-09-24T17:29:58.334Z,4.05
2022-09-24T17:32:35.534Z,3.60
2022-09-24T17:35:07.263Z,3.10
2022-09-24T17:37:36.325Z,3.45
2022-09-24T17:40:12.411Z,3.90
2022-09-24T17:42:46.030Z,3.53
2022-09-24T17:45:15.745Z,3.13
2022-09-24T17:48:02.920Z,3.10
2022-09-24T17:50:34.126Z,3.00
2022-09-24T17:53:05.676Z,3.45
2022-09-24T17:55:34.514Z,3.33
2022-09-24T17:58:03.106Z,3.95
2022-09-24T18:00:33.241Z,3.50
2022-09-24T18:03:06.737Z,3.50
2022-09-24T18:05:35.608Z,3.50
2022-09-24T18:08:07.111Z,3.70
2022-09-24T18:10:40.885Z,3.33
2022-09-24T18:15:45.471Z,3.78
2022-09-24T18:18:22.299Z,4.15
2022-09-24T18:20:56.253Z,3.38
2022-09-24T18:23:32.670Z,4.45
2022-09-24T18:26:10.769Z,5.03
2022-09-24T18:28:40.703Z,4.72
2022-09-24T18:31:17.755Z,5.03
2022-09-24T18:33:48.996Z,4.78
2022-09-24T18:36:19.110Z,4.80
2022-09-24T18:38:51.098Z,5.45
2022-09-24T18:41:21.323Z,5.65
2022-09-24T18:43:52.285Z,5.72
2022-09-24T18:46:21.659Z,5.43
2022-09-24T18:48:55.141Z,5.97
2022-09-24T18:51:24.947Z,5.80
2022-09-24T18:53:57.216Z,6.20
2022-09-24T18:56:30.637Z,10.48
2022-09-24T18:59:00.464Z,11.55
2022-09-24T19:01:30.910Z,13.02
2022-09-24T19:04:02.018Z,11.63
2022-09-24T19:06:31.064Z,12.40
2022-09-24T19:09:02.168Z,11.52
2022-09-24T19:11:31.602Z,10.00
2022-09-24T19:14:02.865Z,11.00
2022-09-24T19:16:33.630Z,9.90
2022-09-24T19:19:03.971Z,9.82
2022-09-24T19:21:32.677Z,8.88
2022-09-24T19:24:03.085Z,9.15
2022-09-24T19:26:32.198Z,9.02
2022-09-24T19:29:00.923Z,8.02
2022-09-24T19:31:30.810Z,7.78
2022-09-24T19:34:03.043Z,7.93
2022-09-24T19:36:37.416Z,8.50
2022-09-24T19:39:13.073Z,9.02
2022-09-24T19:41:41.871Z,9.90
2022-09-24T19:44:11.855Z,8.65
2022-09-24T19:46:41.245Z,9.82
2022-09-24T19:49:11.481Z,9.85
2022-09-24T19:51:46.323Z,8.70
2022-09-24T19:54:16.228Z,7.88
2022-09-24T19:56:47.211Z,8.30
2022-09-24T19:59:16.719Z,7.95
2022-09-24T20:01:48.820Z,8.65
2022-09-24T20:04:17.484Z,7.57
2022-09-24T20:06:49.241Z,8.32
2022-09-24T20:09:17.815Z,8.80
2022-09-24T20:11:46.545Z,8.48
2022-09-24T20:14:15.363Z,9.15
2022-09-24T20:16:47.284Z,8.90
2022-09-24T20:19:16.753Z,8.73
2022-09-24T20:21:47.286Z,8.30
2022-09-24T20:24:22.621Z,7.72
2022-09-24T20:27:17.000Z,6.72
2022-09-24T20:32:19.922Z,6.85
2022-09-24T20:34:52.898Z,7.55
2022-09-24T20:37:21.391Z,8.32
2022-09-24T20:39:56.123Z,9.32
2022-09-24T20:42:25.054Z,7.93
2022-09-24T20:45:03.768Z,8.73
2022-09-24T20:47:37.063Z,8.05
2022-09-24T20:50:10.081Z,7.47
2022-09-24T20:52:40.248Z,7.43
2022-09-24T20:55:12.607Z,7.88
2022-09-24T20:57:50.735Z,7.60
2022-09-24T21:00:19.512Z,6.80
2022-09-24T21:02:51.161Z,7.60
2022-09-24T21:05:24.695Z,7.40
2022-09-24T21:07:53.270Z,6.95
2022-09-24T21:10:23.279Z,7.22
2022-09-24T21:12:51.937Z,7.95
2022-09-24T21:15:20.734Z,7.50
2022-09-24T21:18:18.279Z,7.90
2022-09-24T21:20:45.624Z,8.90
2022-09-24T21:23:19.401Z,7.57
2022-09-24T21:28:25.026Z,9.93
2022-09-24T21:31:03.824Z,9.90
2022-09-24T21:33:32.947Z,9.77
2022-09-24T21:36:06.474Z,10.25
2022-09-24T21:38:40.008Z,9.98
2022-09-24T21:41:09.061Z,8.88
2022-09-24T21:43:41.927Z,8.70
2022-09-24T21:46:12.123Z,9.07
2022-09-24T21:48:40.724Z,7.95
2022-09-24T21:51:09.993Z,8.13
2022-09-24T21:53:40.074Z,8.85
2022-09-24T21:56:09.079Z,9.40
2022-09-24T21:58:39.824Z,7.88
2022-09-24T22:01:09.536Z,8.32
2022-09-24T22:03:42.151Z,8.40
2022-09-24T22:06:11.058Z,9.13
2022-09-24T22:08:39.534Z,8.10
2022-09-24T22:11:09.360Z,9.05
2022-09-24T22:13:39.667Z,8.80
2022-09-24T22:16:08.950Z,8.90
2022-09-24T22:18:38.320Z,8.23
2022-09-24T22:21:08.292Z,9.20
2022-09-24T22:23:36.947Z,9.10
2022-09-24T22:26:05.760Z,9.13
2022-09-24T22:28:34.155Z,8.77
2022-09-24T22:31:06.599Z,8.95
2022-09-24T22:33:52.787Z,8.45
2022-09-24T22:36:21.317Z,8.88
2022-09-24T22:38:49.817Z,8.88
2022-09-24T22:41:18.366Z,9.07
2022-09-24T22:43:47.117Z,9.48
2022-09-24T22:46:17.293Z,8.88
2022-09-24T22:48:47.337Z,9.40
2022-09-24T22:51:16.264Z,9.43
2022-09-24T22:53:44.718Z,9.95
2022-09-24T22:56:13.838Z,9.45
2022-09-24T22:58:44.900Z,9.85
2022-09-24T23:01:15.255Z,9.32
2022-09-24T23:03:46.326Z,9.27
2022-09-24T23:06:14.828Z,9.05
2022-09-24T23:08:46.566Z,9.30
2022-09-24T23:11:15.966Z,8.90
2022-09-24T23:13:45.392Z,8.82
2022-09-24T23:16:15.020Z,8.70
2022-09-24T23:18:45.696Z,8.68
2022-09-24T23:21:15.833Z,8.50
2022-09-24T23:23:44.433Z,7.78
2022-09-24T23:26:16.387Z,8.15
2022-09-24T23:28:45.907Z,8.05
2022-09-24T23:31:15.144Z,10.52
2022-09-24T23:33:45.331Z,10.15
2022-09-24T23:36:14.592Z,9.23
2022-09-24T23:38:43.487Z,9.40
2022-09-24T23:41:12.551Z,9.98
2022-09-24T23:43:41.413Z,9.73
2022-09-24T23:46:10.212Z,11.07
2022-09-24T23:48:39.175Z,9.98
2022-09-24T23:51:09.545Z,9.20
2022-09-24T23:53:38.140Z,9.13
2022-09-24T23:56:08.005Z,9.55
2022-09-24T23:58:36.737Z,8.73
